sensor_id;sensor_type;location;lat;lon;timestamp;pressure;altitude;pressure_sealevel;temperature;humidity
51452;BME280;37521;52.020;-1.740;2023-05-23T00:01:42;100953.50;;;7.02;100.00
51452;BME280;37521;52.020;-1.740;2023-05-23T00:04:11;100959.69;;;6.99;100.00
51452;BME280;37521;52.020;-1.740;2023-05-23T00:06:44;100958.00;;;6.95;100.00
51452;BME280;37521;52.020;-1.740;2023-05-23T00:09:16;100966.75;;;6.96;100.00
51452;BME280;37521;52.020;-1.740;2023-05-23T00:11:45;100967.63;;;6.95;100.00
51452;BME280;37521;52.020;-1.740;2023-05-23T00:14:14;100963.34;;;6.91;100.00
51452;BME280;37521;52.020;-1.740;2023-05-23T00:16:44;100963.41;;;6.86;100.00
51452;BME280;37521;52.020;-1.740;2023-05-23T00:19:15;100965.19;;;6.84;100.00
51452;BME280;37521;52.020;-1.740;2023-05-23T00:21:46;100957.28;;;6.86;100.00
51452;BME280;37521;52.020;-1.740;2023-05-23T00:24:16;100961.56;;;6.91;100.00
51452;BME280;37521;52.020;-1.740;2023-05-23T00:26:45;100964.13;;;6.96;100.00
51452;BME280;37521;52.020;-1.740;2023-05-23T00:29:14;100971.13;;;6.97;100.00
51452;BME280;37521;52.020;-1.740;2023-05-23T00:31:45;100964.91;;;7.02;100.00
51452;BME280;37521;52.020;-1.740;2023-05-23T00:34:13;100971.03;;;7.03;100.00
51452;BME280;37521;52.020;-1.740;2023-05-23T00:36:45;100971.03;;;7.03;100.00
51452;BME280;37521;52.020;-1.740;2023-05-23T00:39:16;100969.28;;;7.00;100.00
51452;BME280;37521;52.020;-1.740;2023-05-23T00:41:48;100974.63;;;6.97;100.00
51452;BME280;37521;52.020;-1.740;2023-05-23T00:44:19;100968.63;;;6.89;100.00
51452;BME280;37521;52.020;-1.740;2023-05-23T00:46:51;100961.81;;;6.76;100.00
51452;BME280;37521;52.020;-1.740;2023-05-23T00:49:20;100960.19;;;6.69;100.00
51452;BME280;37521;52.020;-1.740;2023-05-23T00:51:51;100963.75;;;6.62;100.00
51452;BME280;37521;52.020;-1.740;2023-05-23T00:54:23;100956.84;;;6.58;100.00
51452;BME280;37521;52.020;-1.740;2023-05-23T00:56:53;100961.34;;;6.49;100.00
51452;BME280;37521;52.020;-1.740;2023-05-23T00:59:23;100967.50;;;6.45;100.00
51452;BME280;37521;52.020;-1.740;2023-05-23T01:01:54;100962.28;;;6.44;100.00
51452;BME280;37521;52.020;-1.740;2023-05-23T01:04:24;100963.25;;;6.38;100.00
51452;BME280;37521;52.020;-1.740;2023-05-23T01:06:55;100967.59;;;6.39;100.00
51452;BME280;37521;52.020;-1.740;2023-05-23T01:09:26;100953.66;;;6.34;100.00
51452;BME280;37521;52.020;-1.740;2023-05-23T01:12:11;100961.69;;;6.23;100.00
51452;BME280;37521;52.020;-1.740;2023-05-23T01:14:46;100962.78;;;6.09;100.00
51452;BME280;37521;52.020;-1.740;2023-05-23T01:17:21;100960.31;;;5.93;100.00
51452;BME280;37521;52.020;-1.740;2023-05-23T01:19:57;100968.22;;;5.87;100.00
51452;BME280;37521;52.020;-1.740;2023-05-23T01:22:50;100966.53;;;5.83;100.00
51452;BME280;37521;52.020;-1.740;2023-05-23T01:25:27;100966.59;;;5.79;100.00
51452;BME280;37521;52.020;-1.740;2023-05-23T01:28:07;100970.19;;;5.70;100.00
51452;BME280;37521;52.020;-1.740;2023-05-23T01:30:39;100972.03;;;5.62;100.00
51452;BME280;37521;52.020;-1.740;2023-05-23T01:33:09;100974.63;;;5.60;100.00
51452;BME280;37521;52.020;-1.740;2023-05-23T01:35:38;100975.50;;;5.64;100.00
51452;BME280;37521;52.020;-1.740;2023-05-23T01:38:09;100975.50;;;5.64;100.00
51452;BME280;37521;52.020;-1.740;2023-05-23T01:40:38;100973.69;;;5.69;100.00
51452;BME280;37521;52.020;-1.740;2023-05-23T01:43:10;100979.81;;;5.66;100.00
51452;BME280;37521;52.020;-1.740;2023-05-23T01:45:38;100972.88;;;5.64;100.00
51452;BME280;37521;52.020;-1.740;2023-05-23T01:48:08;100975.53;;;5.59;100.00
51452;BME280;37521;52.020;-1.740;2023-05-23T01:50:37;100977.31;;;5.56;100.00
51452;BME280;37521;52.020;-1.740;2023-05-23T01:53:07;100977.31;;;5.56;100.00
51452;BME280;37521;52.020;-1.740;2023-05-23T01:55:38;100979.91;;;5.59;100.00
51452;BME280;37521;52.020;-1.740;2023-05-23T01:58:08;100985.19;;;5.56;100.00
51452;BME280;37521;52.020;-1.740;2023-05-23T02:00:37;100987.84;;;5.48;100.00
51452;BME280;37521;52.020;-1.740;2023-05-23T02:03:06;100991.44;;;5.42;100.00
51452;BME280;37521;52.020;-1.740;2023-05-23T02:05:35;100992.28;;;5.43;100.00
51452;BME280;37521;52.020;-1.740;2023-05-23T02:08:03;100999.28;;;5.41;100.00
51452;BME280;37521;52.020;-1.740;2023-05-23T02:10:31;100992.28;;;5.43;100.00
51452;BME280;37521;52.020;-1.740;2023-05-23T02:13:00;100996.59;;;5.49;100.00
51452;BME280;37521;52.020;-1.740;2023-05-23T02:15:28;100999.16;;;5.53;100.00
51452;BME280;37521;52.020;-1.740;2023-05-23T02:17:58;100989.50;;;5.60;100.00
51452;BME280;37521;52.020;-1.740;2023-05-23T02:20:28;100991.16;;;5.67;100.00
51452;BME280;37521;52.020;-1.740;2023-05-23T02:22:56;100988.47;;;5.76;100.00
51452;BME280;37521;52.020;-1.740;2023-05-23T02:25:25;100985.72;;;5.85;100.00
51452;BME280;37521;52.020;-1.740;2023-05-23T02:27:53;100997.84;;;5.98;100.00
51452;BME280;37521;52.020;-1.740;2023-05-23T02:30:22;100983.75;;;6.09;100.00
51452;BME280;37521;52.020;-1.740;2023-05-23T02:32:50;100980.16;;;6.16;100.00
51452;BME280;37521;52.020;-1.740;2023-05-23T02:35:21;100977.47;;;6.20;100.00
51452;BME280;37521;52.020;-1.740;2023-05-23T02:37:49;100978.31;;;6.24;100.00
51452;BME280;37521;52.020;-1.740;2023-05-23T02:40:18;100973.00;;;6.27;100.00
51452;BME280;37521;52.020;-1.740;2023-05-23T02:42:46;100980.88;;;6.27;100.00
51452;BME280;37521;52.020;-1.740;2023-05-23T02:45:15;100981.75;;;6.29;100.00
51452;BME280;37521;52.020;-1.740;2023-05-23T02:47:43;100975.59;;;6.30;100.00
51452;BME280;37521;52.020;-1.740;2023-05-23T02:50:12;100976.50;;;6.29;100.00
51452;BME280;37521;52.020;-1.740;2023-05-23T02:52:43;100973.81;;;6.32;100.00
51452;BME280;37521;52.020;-1.740;2023-05-23T02:55:12;100973.81;;;6.32;100.00
51452;BME280;37521;52.020;-1.740;2023-05-23T02:57:44;100976.44;;;6.32;100.00
51452;BME280;37521;52.020;-1.740;2023-05-23T03:00:13;100977.34;;;6.30;100.00
51452;BME280;37521;52.020;-1.740;2023-05-23T03:02:47;100980.84;;;6.28;100.00
51452;BME280;37521;52.020;-1.740;2023-05-23T03:05:15;100975.66;;;6.25;100.00
51452;BME280;37521;52.020;-1.740;2023-05-23T03:07:45;100978.31;;;6.24;100.00
51452;BME280;37521;52.020;-1.740;2023-05-23T03:10:14;100981.84;;;6.20;100.00
51452;BME280;37521;52.020;-1.740;2023-05-23T03:12:43;100986.28;;;6.13;100.00
51452;BME280;37521;52.020;-1.740;2023-05-23T03:15:13;100984.59;;;6.08;100.00
51452;BME280;37521;52.020;-1.740;2023-05-23T03:17:43;100992.59;;;5.98;100.00
51452;BME280;37521;52.020;-1.740;2023-05-23T03:20:14;100990.03;;;5.95;100.00
51452;BME280;37521;52.020;-1.740;2023-05-23T03:22:43;100997.06;;;5.87;100.00
51452;BME280;37521;52.020;-1.740;2023-05-23T03:25:14;100993.63;;;5.82;100.00
51452;BME280;37521;52.020;-1.740;2023-05-23T03:27:43;100991.97;;;5.73;100.00
51452;BME280;37521;52.020;-1.740;2023-05-23T03:30:12;100992.03;;;5.69;100.00
51452;BME280;37521;52.020;-1.740;2023-05-23T03:32:40;100985.91;;;5.67;100.00
51452;BME280;37521;52.020;-1.740;2023-05-23T03:35:09;100991.16;;;5.67;100.00
51452;BME280;37521;52.020;-1.740;2023-05-23T03:37:38;100993.78;;;5.67;100.00
51452;BME280;37521;52.020;-1.740;2023-05-23T03:40:07;100995.59;;;5.62;100.00
51452;BME280;37521;52.020;-1.740;2023-05-23T03:42:37;101004.38;;;5.56;100.00
51452;BME280;37521;52.020;-1.740;2023-05-23T03:45:08;100999.22;;;5.50;100.00
51452;BME280;37521;52.020;-1.740;2023-05-23T03:47:37;101002.69;;;5.51;100.00
51452;BME280;37521;52.020;-1.740;2023-05-23T03:50:07;101007.88;;;5.54;100.00
51452;BME280;37521;52.020;-1.740;2023-05-23T03:52:36;101005.25;;;5.54;100.00
51452;BME280;37521;52.020;-1.740;2023-05-23T03:55:05;101005.28;;;5.52;100.00
51452;BME280;37521;52.020;-1.740;2023-05-23T03:57:36;101008.81;;;5.50;100.00
51452;BME280;37521;52.020;-1.740;2023-05-23T04:00:06;101007.09;;;5.49;100.00
51452;BME280;37521;52.020;-1.740;2023-05-23T04:02:57;101006.22;;;5.45;100.00
51452;BME280;37521;52.020;-1.740;2023-05-23T04:05:27;101009.78;;;5.38;100.00
51452;BME280;37521;52.020;-1.740;2023-05-23T04:07:57;101009.81;;;5.33;100.00
51452;BME280;37521;52.020;-1.740;2023-05-23T04:10:27;101011.56;;;5.33;100.00
51452;BME280;37521;52.020;-1.740;2023-05-23T04:12:59;101001.97;;;5.36;100.00
51452;BME280;37521;52.020;-1.740;2023-05-23T04:15:27;101007.19;;;5.33;100.00
51452;BME280;37521;52.020;-1.740;2023-05-23T04:18:05;101008.94;;;5.34;100.00
51452;BME280;37521;52.020;-1.740;2023-05-23T04:20:36;101007.19;;;5.33;100.00
51452;BME280;37521;52.020;-1.740;2023-05-23T04:23:05;101015.09;;;5.30;100.00
51452;BME280;37521;52.020;-1.740;2023-05-23T04:25:37;101012.47;;;5.32;100.00
51452;BME280;37521;52.020;-1.740;2023-05-23T04:28:34;101008.06;;;5.34;100.00
51452;BME280;37521;52.020;-1.740;2023-05-23T04:31:04;101021.16;;;5.37;100.00
51452;BME280;37521;52.020;-1.740;2023-05-23T04:33:35;101018.47;;;5.41;100.00
51452;BME280;37521;52.020;-1.740;2023-05-23T04:36:04;101018.44;;;5.46;100.00
51452;BME280;37521;52.020;-1.740;2023-05-23T04:38:37;101018.47;;;5.44;100.00
51452;BME280;37521;52.020;-1.740;2023-05-23T04:41:07;101022.84;;;5.42;100.00
51452;BME280;37521;52.020;-1.740;2023-05-23T04:43:47;101017.59;;;5.44;100.00
51452;BME280;37521;52.020;-1.740;2023-05-23T04:46:33;101019.25;;;5.53;100.00
51452;BME280;37521;52.020;-1.740;2023-05-23T04:49:09;101025.34;;;5.56;100.00
51452;BME280;37521;52.020;-1.740;2023-05-23T04:51:39;101021.81;;;5.62;100.00
51452;BME280;37521;52.020;-1.740;2023-05-23T04:54:17;101018.28;;;5.64;100.00
51452;BME280;37521;52.020;-1.740;2023-05-23T04:56:45;101009.50;;;5.67;100.00
51452;BME280;37521;52.020;-1.740;2023-05-23T04:59:19;101022.59;;;5.70;100.00
51452;BME280;37521;52.020;-1.740;2023-05-23T05:01:47;101017.34;;;5.70;100.00
51452;BME280;37521;52.020;-1.740;2023-05-23T05:04:17;101013.84;;;5.71;100.00
51452;BME280;37521;52.020;-1.740;2023-05-23T05:06:46;101019.03;;;5.74;100.00
51452;BME280;37521;52.020;-1.740;2023-05-23T05:09:15;101024.22;;;5.80;100.00
51452;BME280;37521;52.020;-1.740;2023-05-23T05:11:43;101025.00;;;5.87;100.00
51452;BME280;37521;52.020;-1.740;2023-05-23T05:14:12;101030.22;;;5.93;100.00
51452;BME280;37521;52.020;-1.740;2023-05-23T05:16:42;101035.38;;;6.00;100.00
51452;BME280;37521;52.020;-1.740;2023-05-23T05:19:12;101041.41;;;6.10;100.00
51452;BME280;37521;52.020;-1.740;2023-05-23T05:21:40;101036.94;;;6.18;100.00
51452;BME280;37521;52.020;-1.740;2023-05-23T05:24:09;101048.22;;;6.25;100.00
51452;BME280;37521;52.020;-1.740;2023-05-23T05:26:37;101045.53;;;6.31;100.00
51452;BME280;37521;52.020;-1.740;2023-05-23T05:29:06;101041.97;;;6.37;100.00
51452;BME280;37521;52.020;-1.740;2023-05-23T05:31:34;101038.41;;;6.42;100.00
51452;BME280;37521;52.020;-1.740;2023-05-23T05:34:05;101038.28;;;6.48;100.00
51452;BME280;37521;52.020;-1.740;2023-05-23T05:36:34;101037.31;;;6.57;100.00
51452;BME280;37521;52.020;-1.740;2023-05-23T05:39:02;101040.69;;;6.67;100.00
51452;BME280;37521;52.020;-1.740;2023-05-23T05:41:31;101038.78;;;6.78;100.00
51452;BME280;37521;52.020;-1.740;2023-05-23T05:44:00;101036.00;;;6.87;100.00
51452;BME280;37521;52.020;-1.740;2023-05-23T05:46:28;101043.78;;;6.96;100.00
51452;BME280;37521;52.020;-1.740;2023-05-23T05:48:57;101046.28;;;7.04;100.00
51452;BME280;37521;52.020;-1.740;2023-05-23T05:51:27;101040.06;;;7.09;100.00
51452;BME280;37521;52.020;-1.740;2023-05-23T05:53:55;101042.56;;;7.17;100.00
51452;BME280;37521;52.020;-1.740;2023-05-23T05:56:23;101041.63;;;7.23;100.00
51452;BME280;37521;52.020;-1.740;2023-05-23T05:58:54;101037.13;;;7.29;100.00
51452;BME280;37521;52.020;-1.740;2023-05-23T06:01:23;101032.63;;;7.36;100.00
51452;BME280;37521;52.020;-1.740;2023-05-23T06:03:52;101041.25;;;7.44;100.00
51452;BME280;37521;52.020;-1.740;2023-05-23T06:06:22;101042.88;;;7.51;100.00
51452;BME280;37521;52.020;-1.740;2023-05-23T06:08:53;101044.44;;;7.61;100.00
51452;BME280;37521;52.020;-1.740;2023-05-23T06:11:22;101040.75;;;7.72;100.00
51452;BME280;37521;52.020;-1.740;2023-05-23T06:13:50;101038.84;;;7.80;100.00
51452;BME280;37521;52.020;-1.740;2023-05-23T06:16:19;101043.91;;;7.92;100.00
51452;BME280;37521;52.020;-1.740;2023-05-23T06:18:47;101044.56;;;8.02;100.00
51452;BME280;37521;52.020;-1.740;2023-05-23T06:21:16;101040.00;;;8.11;100.00
51452;BME280;37521;52.020;-1.740;2023-05-23T06:23:48;101048.56;;;8.23;100.00
51452;BME280;37521;52.020;-1.740;2023-05-23T06:26:18;101043.09;;;8.32;100.00
51452;BME280;37521;52.020;-1.740;2023-05-23T06:28:47;101042.94;;;8.41;100.00
51452;BME280;37521;52.020;-1.740;2023-05-23T06:31:15;101041.91;;;8.50;100.00
51452;BME280;37521;52.020;-1.740;2023-05-23T06:33:44;101036.44;;;8.59;100.00
51452;BME280;37521;52.020;-1.740;2023-05-23T06:36:12;101051.09;;;8.70;100.00
51452;BME280;37521;52.020;-1.740;2023-05-23T06:38:40;101047.34;;;8.81;100.00
51452;BME280;37521;52.020;-1.740;2023-05-23T06:41:09;101053.16;;;8.95;100.00
51452;BME280;37521;52.020;-1.740;2023-05-23T06:43:39;101048.59;;;9.03;100.00
51452;BME280;37521;52.020;-1.740;2023-05-23T06:46:21;101042.25;;;9.12;100.00
51452;BME280;37521;52.020;-1.740;2023-05-23T06:48:50;101047.34;;;9.19;100.00
51452;BME280;37521;52.020;-1.740;2023-05-23T06:51:34;101048.16;;;9.21;100.00
51452;BME280;37521;52.020;-1.740;2023-05-23T06:54:04;101049.97;;;9.19;100.00
51452;BME280;37521;52.020;-1.740;2023-05-23T06:56:33;101045.69;;;9.14;100.00
51452;BME280;37521;52.020;-1.740;2023-05-23T06:59:05;101051.75;;;9.19;100.00
51452;BME280;37521;52.020;-1.740;2023-05-23T07:01:34;101041.16;;;9.20;100.00
51452;BME280;37521;52.020;-1.740;2023-05-23T07:04:03;101049.78;;;9.27;100.00
51452;BME280;37521;52.020;-1.740;2023-05-23T07:06:33;101059.25;;;9.34;100.00
51452;BME280;37521;52.020;-1.740;2023-05-23T07:09:04;101050.38;;;9.38;100.00
51452;BME280;37521;52.020;-1.740;2023-05-23T07:11:33;101059.06;;;9.42;100.00
51452;BME280;37521;52.020;-1.740;2023-05-23T07:14:04;101059.97;;;9.41;100.00
51452;BME280;37521;52.020;-1.740;2023-05-23T07:16:36;101056.38;;;9.45;100.00
51452;BME280;37521;52.020;-1.740;2023-05-23T07:19:06;101068.56;;;9.49;100.00
51452;BME280;37521;52.020;-1.740;2023-05-23T07:21:41;101071.91;;;9.57;100.00
51452;BME280;37521;52.020;-1.740;2023-05-23T07:24:12;101064.81;;;9.59;100.00
51452;BME280;37521;52.020;-1.740;2023-05-23T07:26:41;101057.66;;;9.64;100.00
51452;BME280;37521;52.020;-1.740;2023-05-23T07:29:11;101058.38;;;9.69;100.00
51452;BME280;37521;52.020;-1.740;2023-05-23T07:31:39;101056.53;;;9.73;100.00
51452;BME280;37521;52.020;-1.740;2023-05-23T07:34:09;101064.25;;;9.80;100.00
51452;BME280;37521;52.020;-1.740;2023-05-23T07:36:52;101051.53;;;9.95;100.00
51452;BME280;37521;52.020;-1.740;2023-05-23T07:39:23;101054.78;;;10.06;100.00
51452;BME280;37521;52.020;-1.740;2023-05-23T07:41:53;101059.78;;;10.15;100.00
51452;BME280;37521;52.020;-1.740;2023-05-23T07:44:23;101050.88;;;10.19;100.00
51452;BME280;37521;52.020;-1.740;2023-05-23T07:46:52;101052.88;;;10.11;100.00
51452;BME280;37521;52.020;-1.740;2023-05-23T07:49:22;101054.94;;;10.00;100.00
51452;BME280;37521;52.020;-1.740;2023-05-23T07:51:51;101049.91;;;9.91;100.00
51452;BME280;37521;52.020;-1.740;2023-05-23T07:54:20;101055.25;;;9.88;100.00
51452;BME280;37521;52.020;-1.740;2023-05-23T07:56:52;101050.88;;;9.87;100.00
51452;BME280;37521;52.020;-1.740;2023-05-23T07:59:23;101043.94;;;9.82;100.00
51452;BME280;37521;52.020;-1.740;2023-05-23T08:01:53;101043.41;;;9.71;100.00
51452;BME280;37521;52.020;-1.740;2023-05-23T08:04:24;101040.88;;;9.67;100.00
51452;BME280;37521;52.020;-1.740;2023-05-23T08:06:54;101045.28;;;9.66;100.00
51452;BME280;37521;52.020;-1.740;2023-05-23T08:09:33;101043.63;;;9.62;100.00
51452;BME280;37521;52.020;-1.740;2023-05-23T08:12:02;101045.44;;;9.60;100.00
51452;BME280;37521;52.020;-1.740;2023-05-23T08:14:34;101048.88;;;9.62;100.00
51452;BME280;37521;52.020;-1.740;2023-05-23T08:17:28;101042.59;;;9.68;100.00
51452;BME280;37521;52.020;-1.740;2023-05-23T08:19:57;101055.56;;;9.75;100.00
51452;BME280;37521;52.020;-1.740;2023-05-23T08:22:27;101048.53;;;9.76;100.00
51452;BME280;37521;52.020;-1.740;2023-05-23T08:24:57;101055.50;;;9.78;100.00
51452;BME280;37521;52.020;-1.740;2023-05-23T08:27:27;101050.81;;;9.90;100.00
51452;BME280;37521;52.020;-1.740;2023-05-23T08:30:06;101048.69;;;10.02;100.00
51452;BME280;37521;52.020;-1.740;2023-05-23T08:32:36;101049.97;;;10.20;100.00
51452;BME280;37521;52.020;-1.740;2023-05-23T08:35:06;101049.72;;;10.29;100.00
51452;BME280;37521;52.020;-1.740;2023-05-23T08:37:35;101050.41;;;10.38;100.00
51452;BME280;37521;52.020;-1.740;2023-05-23T08:40:07;101041.38;;;10.45;100.00
51452;BME280;37521;52.020;-1.740;2023-05-23T08:42:45;101041.03;;;10.57;100.00
51452;BME280;37521;52.020;-1.740;2023-05-23T08:45:16;101042.47;;;10.67;100.00
51452;BME280;37521;52.020;-1.740;2023-05-23T08:47:45;101046.53;;;10.79;100.00
51452;BME280;37521;52.020;-1.740;2023-05-23T08:50:17;101056.75;;;10.89;100.00
51452;BME280;37521;52.020;-1.740;2023-05-23T08:52:53;101057.97;;;11.07;100.00
51452;BME280;37521;52.020;-1.740;2023-05-23T08:55:24;101064.66;;;11.19;100.00
51452;BME280;37521;52.020;-1.740;2023-05-23T08:57:55;101072.56;;;11.19;100.00
51452;BME280;37521;52.020;-1.740;2023-05-23T09:00:47;101061.41;;;11.09;100.00
51452;BME280;37521;52.020;-1.740;2023-05-23T09:03:16;101057.81;;;11.12;100.00
51452;BME280;37521;52.020;-1.740;2023-05-23T09:06:10;101057.63;;;11.18;100.00
51452;BME280;37521;52.020;-1.740;2023-05-23T09:08:40;101056.72;;;11.19;100.00
51452;BME280;37521;52.020;-1.740;2023-05-23T09:11:13;101058.56;;;11.17;100.00
51452;BME280;37521;52.020;-1.740;2023-05-23T09:13:44;101076.03;;;11.21;100.00
51452;BME280;37521;52.020;-1.740;2023-05-23T09:16:18;101079.47;;;11.23;100.00
51452;BME280;37521;52.020;-1.740;2023-05-23T09:18:50;101084.69;;;11.26;100.00
51452;BME280;37521;52.020;-1.740;2023-05-23T09:21:21;101085.44;;;11.30;100.00
51452;BME280;37521;52.020;-1.740;2023-05-23T09:24:04;101087.47;;;11.22;100.00
51452;BME280;37521;52.020;-1.740;2023-05-23T09:26:33;101087.75;;;11.12;100.00
51452;BME280;37521;52.020;-1.740;2023-05-23T09:29:04;101084.31;;;11.10;100.00
51452;BME280;37521;52.020;-1.740;2023-05-23T09:31:35;101088.63;;;11.13;100.00
51452;BME280;37521;52.020;-1.740;2023-05-23T09:34:04;101081.50;;;11.15;100.00
51452;BME280;37521;52.020;-1.740;2023-05-23T09:36:39;101081.50;;;11.15;100.00
51452;BME280;37521;52.020;-1.740;2023-05-23T09:39:11;101071.59;;;11.22;100.00
51452;BME280;37521;52.020;-1.740;2023-05-23T09:41:40;101062.56;;;11.29;100.00
51452;BME280;37521;52.020;-1.740;2023-05-23T09:44:08;101062.28;;;11.38;100.00
51452;BME280;37521;52.020;-1.740;2023-05-23T09:46:38;101054.28;;;11.39;100.00
51452;BME280;37521;52.020;-1.740;2023-05-23T09:49:25;101059.16;;;11.52;100.00
51452;BME280;37521;52.020;-1.740;2023-05-23T09:51:57;101063.81;;;11.70;100.00
51452;BME280;37521;52.020;-1.740;2023-05-23T09:54:25;101063.28;;;11.87;100.00
51452;BME280;37521;52.020;-1.740;2023-05-23T09:56:54;101059.41;;;11.97;100.00
51452;BME280;37521;52.020;-1.740;2023-05-23T09:59:27;101061.66;;;12.08;100.00
51452;BME280;37521;52.020;-1.740;2023-05-23T10:02:01;101062.25;;;12.16;100.00
51452;BME280;37521;52.020;-1.740;2023-05-23T10:04:30;101070.31;;;12.36;100.00
51452;BME280;37521;52.020;-1.740;2023-05-23T10:07:09;101069.19;;;12.67;100.00
51452;BME280;37521;52.020;-1.740;2023-05-23T10:09:44;101064.84;;;12.88;100.00
51452;BME280;37521;52.020;-1.740;2023-05-23T10:12:39;101069.22;;;13.10;100.00
51452;BME280;37521;52.020;-1.740;2023-05-23T10:15:13;101055.72;;;13.17;100.00
51452;BME280;37521;52.020;-1.740;2023-05-23T10:20:38;101060.81;;;13.23;100.00
51452;BME280;37521;52.020;-1.740;2023-05-23T10:23:10;101049.72;;;13.13;100.00
51452;BME280;37521;52.020;-1.740;2023-05-23T10:25:41;101051.84;;;13.03;100.00
51452;BME280;37521;52.020;-1.740;2023-05-23T10:28:11;101054.94;;;13.15;100.00
51452;BME280;37521;52.020;-1.740;2023-05-23T10:30:43;101063.34;;;13.04;100.00
51452;BME280;37521;52.020;-1.740;2023-05-23T10:33:13;101066.66;;;12.87;100.00
51452;BME280;37521;52.020;-1.740;2023-05-23T10:35:49;101072.56;;;12.70;100.00
51452;BME280;37521;52.020;-1.740;2023-05-23T10:38:33;101075.09;;;12.51;100.00
51452;BME280;37521;52.020;-1.740;2023-05-23T10:41:09;101075.25;;;12.47;100.00
51452;BME280;37521;52.020;-1.740;2023-05-23T10:43:46;101073.94;;;12.59;100.00
51452;BME280;37521;52.020;-1.740;2023-05-23T10:46:19;101078.88;;;12.68;100.00
51452;BME280;37521;52.020;-1.740;2023-05-23T10:48:54;101079.44;;;12.76;100.00
51452;BME280;37521;52.020;-1.740;2023-05-23T10:51:24;101079.81;;;12.89;100.00
51452;BME280;37521;52.020;-1.740;2023-05-23T10:53:54;101077.00;;;12.93;100.00
51452;BME280;37521;52.020;-1.740;2023-05-23T10:56:22;101075.28;;;12.92;100.00
51452;BME280;37521;52.020;-1.740;2023-05-23T10:58:52;101062.72;;;12.97;100.00
51452;BME280;37521;52.020;-1.740;2023-05-23T11:01:22;101072.34;;;13.00;100.00
51452;BME280;37521;52.020;-1.740;2023-05-23T11:03:52;101066.28;;;12.96;100.00
51452;BME280;37521;52.020;-1.740;2023-05-23T11:06:36;101067.28;;;12.94;100.00
51452;BME280;37521;52.020;-1.740;2023-05-23T11:09:08;101066.50;;;12.90;100.00
51452;BME280;37521;52.020;-1.740;2023-05-23T11:11:54;101069.28;;;12.87;100.00
51452;BME280;37521;52.020;-1.740;2023-05-23T11:14:51;101063.84;;;12.90;100.00
51452;BME280;37521;52.020;-1.740;2023-05-23T11:17:31;101072.56;;;12.94;100.00
51452;BME280;37521;52.020;-1.740;2023-05-23T11:20:04;101073.56;;;13.13;99.48
51452;BME280;37521;52.020;-1.740;2023-05-23T11:22:34;101070.44;;;13.47;96.80
51452;BME280;37521;52.020;-1.740;2023-05-23T11:25:06;101070.22;;;13.74;96.64
51452;BME280;37521;52.020;-1.740;2023-05-23T11:27:35;101063.97;;;13.95;92.19
51452;BME280;37521;52.020;-1.740;2023-05-23T11:30:07;101064.16;;;14.11;91.04
51452;BME280;37521;52.020;-1.740;2023-05-23T11:32:36;101057.34;;;14.26;82.50
51452;BME280;37521;52.020;-1.740;2023-05-23T11:35:08;101061.94;;;14.41;89.47
51452;BME280;37521;52.020;-1.740;2023-05-23T11:37:38;101065.50;;;14.21;93.94
51452;BME280;37521;52.020;-1.740;2023-05-23T11:40:26;101061.81;;;14.05;89.26
51452;BME280;37521;52.020;-1.740;2023-05-23T11:42:55;101061.59;;;13.89;93.26
51452;BME280;37521;52.020;-1.740;2023-05-23T11:45:24;101064.66;;;13.80;98.85
51452;BME280;37521;52.020;-1.740;2023-05-23T11:47:53;101063.56;;;13.84;98.83
51452;BME280;37521;52.020;-1.740;2023-05-23T11:50:23;101055.22;;;13.93;91.80
51452;BME280;37521;52.020;-1.740;2023-05-23T11:52:54;101057.41;;;14.04;96.20
51452;BME280;37521;52.020;-1.740;2023-05-23T11:55:22;101050.19;;;13.87;94.43
51452;BME280;37521;52.020;-1.740;2023-05-23T11:57:54;101064.38;;;13.86;96.72
51452;BME280;37521;52.020;-1.740;2023-05-23T12:00:23;101046.75;;;13.85;89.86
51452;BME280;37521;52.020;-1.740;2023-05-23T12:02:52;101039.09;;;14.18;87.15
51452;BME280;37521;52.020;-1.740;2023-05-23T12:05:20;101042.91;;;14.31;94.86
51452;BME280;37521;52.020;-1.740;2023-05-23T12:07:50;101046.47;;;14.11;98.97
51452;BME280;37521;52.020;-1.740;2023-05-23T12:10:19;101045.47;;;13.94;99.61
51452;BME280;37521;52.020;-1.740;2023-05-23T12:12:50;101046.84;;;13.82;98.51
51452;BME280;37521;52.020;-1.740;2023-05-23T12:15:24;101055.00;;;13.77;95.59
51452;BME280;37521;52.020;-1.740;2023-05-23T12:17:53;101048.72;;;13.80;100.00
51452;BME280;37521;52.020;-1.740;2023-05-23T12:20:24;101046.75;;;13.85;96.79
51452;BME280;37521;52.020;-1.740;2023-05-23T12:22:55;101034.63;;;14.18;94.81
51452;BME280;37521;52.020;-1.740;2023-05-23T12:25:24;101039.25;;;14.34;83.48
51452;BME280;37521;52.020;-1.740;2023-05-23T12:27:52;101031.25;;;14.54;81.25
51452;BME280;37521;52.020;-1.740;2023-05-23T12:30:22;101029.81;;;14.85;80.34
51452;BME280;37521;52.020;-1.740;2023-05-23T12:32:50;101031.06;;;15.14;86.26
51452;BME280;37521;52.020;-1.740;2023-05-23T12:35:20;101040.81;;;15.32;82.85
51452;BME280;37521;52.020;-1.740;2023-05-23T12:37:48;101026.88;;;15.44;78.34
51452;BME280;37521;52.020;-1.740;2023-05-23T12:40:18;101029.22;;;15.50;81.67
51452;BME280;37521;52.020;-1.740;2023-05-23T12:42:51;101040.69;;;15.16;83.43
51452;BME280;37521;52.020;-1.740;2023-05-23T12:45:21;101037.84;;;14.64;84.84
51452;BME280;37521;52.020;-1.740;2023-05-23T12:47:50;101036.34;;;14.78;76.12
51452;BME280;37521;52.020;-1.740;2023-05-23T12:50:20;101035.94;;;15.04;80.44
51452;BME280;37521;52.020;-1.740;2023-05-23T12:52:49;101034.63;;;15.32;76.46
51452;BME280;37521;52.020;-1.740;2023-05-23T12:55:19;101029.50;;;15.63;69.98
51452;BME280;37521;52.020;-1.740;2023-05-23T12:57:48;101019.78;;;15.79;77.35
51452;BME280;37521;52.020;-1.740;2023-05-23T13:00:17;101029.78;;;15.57;86.69
51452;BME280;37521;52.020;-1.740;2023-05-23T13:02:46;101037.69;;;15.59;78.29